METAR Data
IDs: Format: Raw Decoded Include TAF

Data at: 1716 UTC 16 Oct 2021

KMKN 161655Z AUTO 04009G15KT 10SM CLR 20/03 A3044 RMK AO2 T01950026
KMKN 161635Z AUTO 03006KT 10SM CLR 19/03 A3044 RMK AO2 T01910030
KMKN 161615Z AUTO 05008KT 10SM CLR 19/04 A3044 RMK AO2 T01860041
KMKN 161555Z AUTO 01005KT 10SM CLR 18/07 A3044 RMK AO2 T01820072
KMKN 161535Z AUTO 02005KT 10SM CLR 17/07 A3043 RMK AO2 T01730069
KMKN 161515Z AUTO 36005KT 10SM CLR 17/08 A3043 RMK AO2 T01660082
KMKN 161455Z AUTO 33004KT 10SM CLR 16/08 A3043 RMK AO2 T01550083
KMKN 161435Z AUTO 32003KT 10SM CLR 14/08 A3042 RMK AO2 T01410082
KMKN 161415Z AUTO 31004KT 10SM CLR 13/08 A3041 RMK AO2 T01290077
KMKN 161355Z AUTO 31005KT 10SM CLR 12/07 A3041 RMK AO2 T01170072
KMKN 161335Z AUTO 31004KT 10SM CLR 10/06 A3040 RMK AO2 T00990064
KMKN 161315Z AUTO 32004KT 10SM CLR 09/06 A3039 RMK AO2 T00900055
KMKN 161255Z AUTO 31004KT 10SM CLR 08/05 A3038 RMK AO2 T00820049
KMKN 161235Z AUTO 31004KT 10SM CLR 08/05 A3038 RMK AO2 T00830050
KMKN 161215Z AUTO 31004KT 10SM CLR 08/05 A3038 RMK AO2 T00840050
KMKN 161155Z AUTO 31003KT 10SM CLR 08/05 A3037 RMK AO2 T00840052 10106 20084
KMKN 161135Z AUTO 33004KT 10SM CLR 09/06 A3035 RMK AO2 T00850055
KMKN 161115Z AUTO 33004KT 10SM CLR 09/06 A3035 RMK AO2 T00850056
KMKN 161055Z AUTO 33005KT 10SM CLR 09/06 A3034 RMK AO2 T00870058
KMKN 161035Z AUTO 33006KT 10SM CLR 09/06 A3034 RMK AO2 T00870060
KMKN 161015Z AUTO 33007KT 10SM CLR 09/06 A3034 RMK AO2 T00900060
KMKN 160955Z AUTO 33007KT 10SM CLR 09/06 A3034 RMK AO2 T00910061
KMKN 160935Z AUTO 33007KT 10SM CLR 09/06 A3034 RMK AO2 T00920062
KMKN 160915Z AUTO 33006KT 10SM CLR 09/06 A3034 RMK AO2 T00930062
KMKN 160855Z AUTO 33006KT 10SM CLR 10/06 A3034 RMK AO2 T00980064
KMKN 160835Z AUTO 32006KT 10SM CLR 10/07 A3034 RMK AO2 T01000065
KMKN 160815Z AUTO 33006KT 10SM CLR 10/07 A3034 RMK AO2 T01010065
KMKN 160755Z AUTO 33005KT 10SM CLR 10/07 A3034 RMK AO2 T01010066
KMKN 160735Z AUTO 32005KT 10SM CLR 10/07 A3034 RMK AO2 T01020070
KMKN 160715Z AUTO 33005KT 10SM CLR 10/07 A3034 RMK AO2 T01010070
KMKN 160655Z AUTO 34005KT 10SM CLR 10/07 A3033 RMK AO2 T01020071
KMKN 160635Z AUTO 34007KT 10SM CLR 10/07 A3032 RMK AO2 T01020071
KMKN 160615Z AUTO 33006KT 10SM CLR 11/07 A3032 RMK AO2 T01050072
KMKN 160555Z AUTO 34006KT 10SM CLR 11/07 A3031 RMK AO2 T01050072 10186 20105 402300105
KMKN 160535Z AUTO 35006KT 10SM CLR 11/07 A3031 RMK AO2 T01070072
KMKN 160515Z AUTO 34005KT 10SM CLR 11/07 A3032 RMK AO2 T01110073
KMKN 160455Z AUTO 34006KT 10SM CLR 12/08 A3031 RMK AO2 T01150075
KMKN 160435Z AUTO 34005KT 10SM CLR 12/08 A3030 RMK AO2 T01150075
KMKN 160415Z AUTO 35006KT 10SM CLR 12/08 A3030 RMK AO2 T01180075
KMKN 160355Z AUTO 35004KT 10SM CLR 12/08 A3029 RMK AO2 T01220075
KMKN 160335Z AUTO 36004KT 10SM CLR 13/08 A3029 RMK AO2 T01310077
KMKN 160315Z AUTO 35007KT 10SM CLR 13/08 A3027 RMK AO2 T01340080
KMKN 160255Z AUTO 36009KT 10SM CLR 14/08 A3026 RMK AO2 T01400081
KMKN 160235Z AUTO 35009KT 10SM CLR 14/08 A3025 RMK AO2 T01400081
KMKN 160215Z AUTO 36007KT 10SM CLR 14/08 A3025 RMK AO2 T01430082
KMKN 160155Z AUTO 35007KT 10SM CLR 15/08 A3024 RMK AO2 T01480082
KMKN 160135Z AUTO 35007KT 10SM CLR 15/08 A3023 RMK AO2 T01500084
KMKN 160115Z AUTO 35006KT 10SM CLR 16/08 A3021 RMK AO2 T01550083
KMKN 160055Z AUTO 35006KT 10SM CLR 16/09 A3020 RMK AO2 T01590085
KMKN 160035Z AUTO 36007KT 10SM CLR 16/09 A3019 RMK AO2 T01620085
KMKN 160015Z AUTO 36007KT 10SM CLR 18/08 A3018 RMK AO2 T01750082
KMKN 152355Z AUTO 36008KT 10SM CLR 19/08 A3018 RMK AO2 T01870080 10230 20187
KMKN 152335Z AUTO 36012G18KT 10SM CLR 20/08 A3017 RMK AO2 T01980079
KMKN 152315Z AUTO 35013G21KT 10SM CLR 21/08 A3015 RMK AO2 T02050083
KMKN 152255Z AUTO 36015G22KT 10SM CLR 21/09 A3015 RMK AO2 T02110088
KMKN 152235Z AUTO 36013G19KT 10SM CLR 22/09 A3014 RMK AO2 T02160094
KMKN 152215Z AUTO 35012G18KT 10SM CLR 22/10 A3014 RMK AO2 T02180095
KMKN 152155Z AUTO 01014G21KT 10SM CLR 22/10 A3013 RMK AO2 T02210097
KMKN 152135Z AUTO 35014G23KT 10SM CLR 22/10 A3013 RMK AO2 T02230102
KMKN 152115Z AUTO 36012G20KT 10SM CLR 23/11 A3013 RMK AO2 T02270111
KMKN 152055Z AUTO 35014G22KT 10SM CLR 23/11 A3012 RMK AO2 T02260109
KMKN 152035Z AUTO 36014G17KT 10SM CLR 23/12 A3012 RMK AO2 T02290117
KMKN 152015Z AUTO 34015G22KT 10SM CLR 23/12 A3011 RMK AO2 T02260118
KMKN 151955Z AUTO 34014G22KT 10SM CLR 23/12 A3012 RMK AO2 T02250117
KMKN 151935Z AUTO 34015G21KT 10SM CLR 23/13 A3012 RMK AO2 T02260126
KMKN 151915Z AUTO 36015G23KT 10SM CLR 23/13 A3011 RMK AO2 T02250125
KMKN 151855Z AUTO 35018G22KT 10SM CLR 22/13 A3011 RMK AO2 T02190125
KMKN 151835Z AUTO 36014G20KT 10SM CLR 22/13 A3012 RMK AO2 T02160128
KMKN 151815Z AUTO 35016G23KT 10SM SCT024 SCT028 21/13 A3012 RMK AO2 T02100132
KMKN 151755Z AUTO 33014G20KT 10SM BKN021 BKN026 20/14 A3012 RMK AO2 T02010141 10202 20151
KMKN 151735Z AUTO 32012G17KT 10SM OVC019 19/14 A3012 RMK AO2 T01860139
KMKN 151715Z AUTO 33010G15KT 10SM OVC017 18/14 A3012 RMK AO2 T01770143
KMKN 151655Z AUTO 34013G20KT 10SM OVC012 17/14 A3012 RMK AO2 T01660138
KMKN 151635Z AUTO 33014G19KT 10SM OVC012 17/14 A3012 RMK AO2 T01660139
KMKN 151615Z AUTO 33013G19KT 10SM OVC012 16/14 A3010 RMK AO2 T01620137
KMKN 151555Z AUTO 32011G16KT 10SM OVC012 16/13 A3010 RMK AO2 T01560134
KMKN 151535Z AUTO 33013G18KT 10SM OVC012 16/13 A3009 RMK AO2 T01550133
KMKN 151515Z AUTO 33011G19KT 10SM OVC012 16/13 A3008 RMK AO2 T01550130
KMKN 151455Z AUTO 33015G22KT 10SM BKN014 16/13 A3007 RMK AO2 T01600128
KMKN 151435Z AUTO 33012G17KT 10SM SCT018 16/13 A3005 RMK AO2 T01620134
KMKN 151415Z AUTO 32014G18KT 10SM BKN016 15/13 A3004 RMK AO2 T01510130
KMKN 151355Z AUTO 32013G17KT 10SM OVC014 16/14 A3002 RMK AO2 T01550144
KMKN 151335Z AUTO 33015G20KT 10SM SCT007 BKN012 OVC019 17/17 A3000 RMK AO2 T01710171
KMKN 151315Z AUTO 29007KT 10SM SCT005 BKN019 OVC028 20/20 A2998 RMK AO2 T02020202
KMKN 151255Z AUTO 30005KT 7SM BKN021 BKN028 20/20 A2996 RMK AO2 T02000200
KMKN 151235Z AUTO 33004KT 10SM SCT019 20/20 A2995 RMK AO2 T01970197
KMKN 151215Z AUTO 00000KT 10SM CLR 20/20 A2994 RMK AO2 T02010201
KMKN 151155Z AUTO 24006KT 10SM CLR 20/20 A2992 RMK AO2 T02020202 10209 20191
KMKN 151135Z AUTO 21006KT 10SM CLR 20/20 A2991 RMK AO2 T02010201
KMKN 151115Z AUTO 20008KT 10SM CLR 20/20 A2990 RMK AO2 T02010201
KMKN 151055Z AUTO 20007KT 10SM CLR 20/20 A2990 RMK AO2 T02020202
KMKN 151035Z AUTO 21007KT 10SM SCT004 21/21 A2989 RMK AO2 T02050205
KMKN 151015Z AUTO 20008KT 7SM OVC006 21/21 A2989 RMK AO2 T02050205
KMKN 150955Z AUTO 18005KT 7SM BKN006 20/20 A2990 RMK AO2 T02020202
KMKN 150935Z AUTO 21004KT 7SM SCT006 20/20 A2989 RMK AO2 T02000200
KMKN 150915Z AUTO 20005KT 10SM CLR 20/20 A2989 RMK AO2 T01990199
KMKN 150855Z AUTO 20003KT 10SM CLR 20/20 A2989 RMK AO2 T01960196
KMKN 150835Z AUTO 00000KT 1 3/4SM BR VV007 19/19 A2989 RMK AO2 T01920192
KMKN 150815Z AUTO 00000KT 10SM CLR 20/20 A2989 RMK AO2 T01950195
KMKN 150755Z AUTO 00000KT 7SM CLR 20/20 A2988 RMK AO2 T01950195
KMKN 150735Z AUTO 00000KT 7SM CLR 20/20 A2987 RMK AO2 T01970197
KMKN 150715Z AUTO 17003KT 10SM CLR 20/20 A2987 RMK AO2 T02020202
KMKN 150655Z AUTO 20005KT 10SM CLR 21/21 A2987 RMK AO2 T02050205
KMKN 150635Z AUTO 19007KT 10SM CLR 21/21 A2987 RMK AO2 T02090209
KMKN 150615Z AUTO 20009KT 10SM CLR 21/21 A2987 RMK AO2 T02080208
KMKN 150555Z AUTO 20009KT 10SM CLR 21/21 A2988 RMK AO2 T02080208 10262 20193 403090189
KMKN 150535Z AUTO 19008KT 10SM CLR 21/20 A2988 RMK AO2 T02080203